sensor_id;sensor_type;location;lat;lon;timestamp;temperature;humidity
23827;DHT22;12094;50.822;4.376;2022-10-26T00:01:23;14.90;99.90
23827;DHT22;12094;50.822;4.376;2022-10-26T00:03:54;14.80;99.90
23827;DHT22;12094;50.822;4.376;2022-10-26T00:06:24;14.90;99.90
23827;DHT22;12094;50.822;4.376;2022-10-26T00:08:53;14.90;99.90
23827;DHT22;12094;50.822;4.376;2022-10-26T00:11:22;14.90;99.90
23827;DHT22;12094;50.822;4.376;2022-10-26T00:13:50;14.90;99.90
23827;DHT22;12094;50.822;4.376;2022-10-26T00:16:25;14.90;99.90
23827;DHT22;12094;50.822;4.376;2022-10-26T00:18:53;15.00;99.90
23827;DHT22;12094;50.822;4.376;2022-10-26T00:21:23;15.00;99.90
23827;DHT22;12094;50.822;4.376;2022-10-26T00:23:51;15.10;99.90
23827;DHT22;12094;50.822;4.376;2022-10-26T00:26:22;15.10;99.90
23827;DHT22;12094;50.822;4.376;2022-10-26T00:28:52;15.10;99.90
23827;DHT22;12094;50.822;4.376;2022-10-26T00:31:26;15.10;99.90
23827;DHT22;12094;50.822;4.376;2022-10-26T00:33:55;15.20;99.90
23827;DHT22;12094;50.822;4.376;2022-10-26T00:36:23;15.20;99.90
23827;DHT22;12094;50.822;4.376;2022-10-26T00:38:54;15.30;99.90
23827;DHT22;12094;50.822;4.376;2022-10-26T00:41:24;15.20;99.90
23827;DHT22;12094;50.822;4.376;2022-10-26T00:43:54;15.30;99.90
23827;DHT22;12094;50.822;4.376;2022-10-26T00:46:30;15.30;99.90
23827;DHT22;12094;50.822;4.376;2022-10-26T00:49:13;15.30;99.90
23827;DHT22;12094;50.822;4.376;2022-10-26T00:51:47;15.40;99.90
23827;DHT22;12094;50.822;4.376;2022-10-26T00:54:17;15.40;99.90
23827;DHT22;12094;50.822;4.376;2022-10-26T00:56:49;15.40;99.90
23827;DHT22;12094;50.822;4.376;2022-10-26T00:59:20;15.40;99.90
23827;DHT22;12094;50.822;4.376;2022-10-26T01:01:48;15.40;99.90
23827;DHT22;12094;50.822;4.376;2022-10-26T01:04:18;15.40;99.90
23827;DHT22;12094;50.822;4.376;2022-10-26T01:06:47;15.30;99.90
23827;DHT22;12094;50.822;4.376;2022-10-26T01:09:16;15.30;99.90
23827;DHT22;12094;50.822;4.376;2022-10-26T01:11:44;15.40;99.90
23827;DHT22;12094;50.822;4.376;2022-10-26T01:14:12;15.40;99.90
23827;DHT22;12094;50.822;4.376;2022-10-26T01:22:15;15.20;99.90
23827;DHT22;12094;50.822;4.376;2022-10-26T01:27:50;15.10;99.90
23827;DHT22;12094;50.822;4.376;2022-10-26T01:30:38;15.20;99.90
23827;DHT22;12094;50.822;4.376;2022-10-26T01:33:25;15.10;99.90
23827;DHT22;12094;50.822;4.376;2022-10-26T01:43:57;15.20;99.90
23827;DHT22;12094;50.822;4.376;2022-10-26T01:46:26;15.20;99.90
23827;DHT22;12094;50.822;4.376;2022-10-26T01:49:02;15.30;99.90
23827;DHT22;12094;50.822;4.376;2022-10-26T01:51:32;15.20;99.90
23827;DHT22;12094;50.822;4.376;2022-10-26T01:54:00;15.40;99.90
23827;DHT22;12094;50.822;4.376;2022-10-26T01:56:31;15.40;99.90
23827;DHT22;12094;50.822;4.376;2022-10-26T02:07:22;15.50;99.90
23827;DHT22;12094;50.822;4.376;2022-10-26T02:15:21;15.60;99.90
23827;DHT22;12094;50.822;4.376;2022-10-26T02:17:58;15.60;99.90
23827;DHT22;12094;50.822;4.376;2022-10-26T02:20:39;15.60;99.90
23827;DHT22;12094;50.822;4.376;2022-10-26T02:23:08;15.70;99.90
23827;DHT22;12094;50.822;4.376;2022-10-26T02:25:41;15.70;99.90
23827;DHT22;12094;50.822;4.376;2022-10-26T02:28:13;15.80;99.90
23827;DHT22;12094;50.822;4.376;2022-10-26T02:47:06;16.00;99.90
23827;DHT22;12094;50.822;4.376;2022-10-26T02:49:52;16.00;99.90
23827;DHT22;12094;50.822;4.376;2022-10-26T02:52:38;16.00;99.90
23827;DHT22;12094;50.822;4.376;2022-10-26T02:58:42;16.10;99.90
23827;DHT22;12094;50.822;4.376;2022-10-26T03:01:17;16.10;99.90
23827;DHT22;12094;50.822;4.376;2022-10-26T03:08:45;16.20;99.90
23827;DHT22;12094;50.822;4.376;2022-10-26T03:14:46;16.10;99.90
23827;DHT22;12094;50.822;4.376;2022-10-26T03:17:13;16.10;99.90
23827;DHT22;12094;50.822;4.376;2022-10-26T03:19:41;16.10;99.90
23827;DHT22;12094;50.822;4.376;2022-10-26T03:22:10;16.20;99.90
23827;DHT22;12094;50.822;4.376;2022-10-26T03:24:40;16.20;99.90
23827;DHT22;12094;50.822;4.376;2022-10-26T03:27:08;16.20;99.90
23827;DHT22;12094;50.822;4.376;2022-10-26T03:29:35;16.30;99.90
23827;DHT22;12094;50.822;4.376;2022-10-26T03:32:34;16.10;99.90
23827;DHT22;12094;50.822;4.376;2022-10-26T03:38:40;16.10;99.90
23827;DHT22;12094;50.822;4.376;2022-10-26T03:41:09;16.10;99.90
23827;DHT22;12094;50.822;4.376;2022-10-26T04:02:05;15.80;99.90
23827;DHT22;12094;50.822;4.376;2022-10-26T04:04:35;15.80;99.90
23827;DHT22;12094;50.822;4.376;2022-10-26T04:07:02;15.80;99.90
23827;DHT22;12094;50.822;4.376;2022-10-26T04:09:29;15.80;99.90
23827;DHT22;12094;50.822;4.376;2022-10-26T04:11:56;15.80;99.90
23827;DHT22;12094;50.822;4.376;2022-10-26T04:14:23;15.80;99.90
23827;DHT22;12094;50.822;4.376;2022-10-26T04:17:03;15.80;99.90
23827;DHT22;12094;50.822;4.376;2022-10-26T04:19:33;15.80;99.90
23827;DHT22;12094;50.822;4.376;2022-10-26T04:22:04;15.70;99.90
23827;DHT22;12094;50.822;4.376;2022-10-26T04:24:34;15.70;99.90
23827;DHT22;12094;50.822;4.376;2022-10-26T04:27:03;15.70;99.90
23827;DHT22;12094;50.822;4.376;2022-10-26T04:29:43;15.80;99.90
23827;DHT22;12094;50.822;4.376;2022-10-26T04:32:11;15.80;99.90
23827;DHT22;12094;50.822;4.376;2022-10-26T04:34:40;15.80;99.90
23827;DHT22;12094;50.822;4.376;2022-10-26T04:37:10;15.80;99.90
23827;DHT22;12094;50.822;4.376;2022-10-26T04:39:37;15.80;99.90
23827;DHT22;12094;50.822;4.376;2022-10-26T04:42:06;15.80;99.90
23827;DHT22;12094;50.822;4.376;2022-10-26T04:44:42;15.80;99.90
23827;DHT22;12094;50.822;4.376;2022-10-26T04:47:10;15.80;99.90
23827;DHT22;12094;50.822;4.376;2022-10-26T04:49:42;15.80;99.90
23827;DHT22;12094;50.822;4.376;2022-10-26T04:52:10;15.80;99.90
23827;DHT22;12094;50.822;4.376;2022-10-26T04:54:42;15.80;99.90
23827;DHT22;12094;50.822;4.376;2022-10-26T04:57:11;15.80;99.90
23827;DHT22;12094;50.822;4.376;2022-10-26T04:59:41;15.80;99.90
23827;DHT22;12094;50.822;4.376;2022-10-26T05:02:10;15.80;99.90
23827;DHT22;12094;50.822;4.376;2022-10-26T05:04:40;15.80;99.90
23827;DHT22;12094;50.822;4.376;2022-10-26T05:07:09;15.80;99.90
23827;DHT22;12094;50.822;4.376;2022-10-26T05:09:37;15.80;99.90
23827;DHT22;12094;50.822;4.376;2022-10-26T05:12:04;15.80;99.90
23827;DHT22;12094;50.822;4.376;2022-10-26T05:14:34;15.80;99.90
23827;DHT22;12094;50.822;4.376;2022-10-26T05:17:02;15.80;99.90
23827;DHT22;12094;50.822;4.376;2022-10-26T05:19:32;15.80;99.90
23827;DHT22;12094;50.822;4.376;2022-10-26T05:22:01;15.80;99.90
23827;DHT22;12094;50.822;4.376;2022-10-26T05:24:34;15.70;99.90
23827;DHT22;12094;50.822;4.376;2022-10-26T05:27:02;15.70;99.90
23827;DHT22;12094;50.822;4.376;2022-10-26T05:29:30;15.80;99.90
23827;DHT22;12094;50.822;4.376;2022-10-26T05:31:59;15.70;99.90
23827;DHT22;12094;50.822;4.376;2022-10-26T05:34:30;15.80;99.90
23827;DHT22;12094;50.822;4.376;2022-10-26T05:36:58;15.70;99.90
23827;DHT22;12094;50.822;4.376;2022-10-26T05:39:30;15.60;99.90
23827;DHT22;12094;50.822;4.376;2022-10-26T05:42:22;15.60;99.90
23827;DHT22;12094;50.822;4.376;2022-10-26T05:44:53;15.60;99.90
23827;DHT22;12094;50.822;4.376;2022-10-26T05:47:21;15.70;99.90
23827;DHT22;12094;50.822;4.376;2022-10-26T05:49:49;15.70;99.90
23827;DHT22;12094;50.822;4.376;2022-10-26T05:52:19;15.60;99.90
23827;DHT22;12094;50.822;4.376;2022-10-26T05:54:54;15.60;99.90
23827;DHT22;12094;50.822;4.376;2022-10-26T05:57:36;15.60;99.90
23827;DHT22;12094;50.822;4.376;2022-10-26T06:00:09;15.50;99.90
23827;DHT22;12094;50.822;4.376;2022-10-26T06:05:20;15.50;99.90
23827;DHT22;12094;50.822;4.376;2022-10-26T06:07:48;15.40;99.90
23827;DHT22;12094;50.822;4.376;2022-10-26T06:10:17;15.40;99.90
23827;DHT22;12094;50.822;4.376;2022-10-26T06:12:53;15.40;99.90
23827;DHT22;12094;50.822;4.376;2022-10-26T06:15:23;15.40;99.90
23827;DHT22;12094;50.822;4.376;2022-10-26T06:18:01;15.40;99.90
23827;DHT22;12094;50.822;4.376;2022-10-26T06:21:00;15.30;99.90
23827;DHT22;12094;50.822;4.376;2022-10-26T06:32:09;15.30;99.90
23827;DHT22;12094;50.822;4.376;2022-10-26T06:34:41;15.30;99.90
23827;DHT22;12094;50.822;4.376;2022-10-26T06:37:12;15.30;99.90
23827;DHT22;12094;50.822;4.376;2022-10-26T06:39:42;15.30;99.90
23827;DHT22;12094;50.822;4.376;2022-10-26T06:42:17;15.20;99.90
23827;DHT22;12094;50.822;4.376;2022-10-26T06:44:44;15.20;99.90
23827;DHT22;12094;50.822;4.376;2022-10-26T06:47:33;15.30;99.90
23827;DHT22;12094;50.822;4.376;2022-10-26T06:50:26;15.30;99.90
23827;DHT22;12094;50.822;4.376;2022-10-26T06:55:42;15.30;99.90
23827;DHT22;12094;50.822;4.376;2022-10-26T06:58:19;15.30;99.90
23827;DHT22;12094;50.822;4.376;2022-10-26T07:00:52;15.30;99.90
23827;DHT22;12094;50.822;4.376;2022-10-26T07:03:34;15.30;99.90
23827;DHT22;12094;50.822;4.376;2022-10-26T07:06:07;15.30;99.90
23827;DHT22;12094;50.822;4.376;2022-10-26T07:08:38;15.40;99.90
23827;DHT22;12094;50.822;4.376;2022-10-26T07:11:05;15.40;99.90
23827;DHT22;12094;50.822;4.376;2022-10-26T07:13:32;15.40;99.90
23827;DHT22;12094;50.822;4.376;2022-10-26T07:16:00;15.40;99.90
23827;DHT22;12094;50.822;4.376;2022-10-26T07:18:27;15.50;99.90
23827;DHT22;12094;50.822;4.376;2022-10-26T07:20:54;15.50;99.90
23827;DHT22;12094;50.822;4.376;2022-10-26T07:23:22;15.60;99.90
23827;DHT22;12094;50.822;4.376;2022-10-26T07:25:49;15.60;99.90
23827;DHT22;12094;50.822;4.376;2022-10-26T07:28:17;15.60;99.90
23827;DHT22;12094;50.822;4.376;2022-10-26T07:30:44;15.70;99.90
23827;DHT22;12094;50.822;4.376;2022-10-26T07:33:13;15.70;99.90
23827;DHT22;12094;50.822;4.376;2022-10-26T07:35:40;15.70;99.90
23827;DHT22;12094;50.822;4.376;2022-10-26T07:38:07;15.70;99.90
23827;DHT22;12094;50.822;4.376;2022-10-26T07:40:36;15.90;99.90
23827;DHT22;12094;50.822;4.376;2022-10-26T07:43:05;15.80;99.90
23827;DHT22;12094;50.822;4.376;2022-10-26T07:45:32;15.90;99.90
23827;DHT22;12094;50.822;4.376;2022-10-26T07:47:59;16.00;99.90
23827;DHT22;12094;50.822;4.376;2022-10-26T07:50:29;16.00;99.90
23827;DHT22;12094;50.822;4.376;2022-10-26T07:52:58;16.00;99.90
23827;DHT22;12094;50.822;4.376;2022-10-26T07:55:25;16.10;99.90
23827;DHT22;12094;50.822;4.376;2022-10-26T07:57:57;16.10;99.90
23827;DHT22;12094;50.822;4.376;2022-10-26T08:00:27;16.10;99.90
23827;DHT22;12094;50.822;4.376;2022-10-26T08:02:59;16.20;99.90
23827;DHT22;12094;50.822;4.376;2022-10-26T08:05:34;16.20;99.90
23827;DHT22;12094;50.822;4.376;2022-10-26T08:08:02;16.30;99.90
23827;DHT22;12094;50.822;4.376;2022-10-26T08:10:36;16.30;99.90
23827;DHT22;12094;50.822;4.376;2022-10-26T08:13:06;16.40;99.90
23827;DHT22;12094;50.822;4.376;2022-10-26T08:15:33;16.50;99.90
23827;DHT22;12094;50.822;4.376;2022-10-26T08:18:07;16.60;99.90
23827;DHT22;12094;50.822;4.376;2022-10-26T08:20:39;16.70;99.90
23827;DHT22;12094;50.822;4.376;2022-10-26T08:23:11;16.70;99.90
23827;DHT22;12094;50.822;4.376;2022-10-26T08:25:44;16.70;99.90
23827;DHT22;12094;50.822;4.376;2022-10-26T08:28:13;16.70;99.90
23827;DHT22;12094;50.822;4.376;2022-10-26T08:30:41;16.80;99.90
23827;DHT22;12094;50.822;4.376;2022-10-26T08:33:10;16.80;99.90
23827;DHT22;12094;50.822;4.376;2022-10-26T08:36:00;16.90;99.90
23827;DHT22;12094;50.822;4.376;2022-10-26T08:38:29;17.00;99.90
23827;DHT22;12094;50.822;4.376;2022-10-26T08:41:07;17.00;99.90
23827;DHT22;12094;50.822;4.376;2022-10-26T08:43:39;17.00;99.90
23827;DHT22;12094;50.822;4.376;2022-10-26T08:46:33;17.00;99.90
23827;DHT22;12094;50.822;4.376;2022-10-26T08:49:31;17.10;99.90
23827;DHT22;12094;50.822;4.376;2022-10-26T08:52:01;17.10;99.90
23827;DHT22;12094;50.822;4.376;2022-10-26T08:57:01;17.20;99.90
23827;DHT22;12094;50.822;4.376;2022-10-26T08:59:46;17.30;99.90
23827;DHT22;12094;50.822;4.376;2022-10-26T09:02:16;17.30;99.90
23827;DHT22;12094;50.822;4.376;2022-10-26T09:04:43;17.30;99.90
23827;DHT22;12094;50.822;4.376;2022-10-26T09:16:05;17.50;99.90
23827;DHT22;12094;50.822;4.376;2022-10-26T09:24:21;17.70;99.90
23827;DHT22;12094;50.822;4.376;2022-10-26T09:29:35;17.90;99.90
23827;DHT22;12094;50.822;4.376;2022-10-26T09:32:05;17.90;99.90
23827;DHT22;12094;50.822;4.376;2022-10-26T09:34:54;17.90;99.90
23827;DHT22;12094;50.822;4.376;2022-10-26T09:37:33;17.80;99.90
23827;DHT22;12094;50.822;4.376;2022-10-26T09:40:26;17.80;99.90
23827;DHT22;12094;50.822;4.376;2022-10-26T09:43:13;17.90;99.90
23827;DHT22;12094;50.822;4.376;2022-10-26T09:45:53;17.90;99.90
23827;DHT22;12094;50.822;4.376;2022-10-26T09:48:26;18.00;99.90
23827;DHT22;12094;50.822;4.376;2022-10-26T09:50:57;18.10;99.90
23827;DHT22;12094;50.822;4.376;2022-10-26T09:53:31;18.20;99.90
23827;DHT22;12094;50.822;4.376;2022-10-26T09:56:12;18.20;99.90
23827;DHT22;12094;50.822;4.376;2022-10-26T09:58:51;18.30;99.90
23827;DHT22;12094;50.822;4.376;2022-10-26T10:01:40;18.40;99.90
23827;DHT22;12094;50.822;4.376;2022-10-26T10:04:16;18.40;99.90
23827;DHT22;12094;50.822;4.376;2022-10-26T10:07:12;18.50;99.90
23827;DHT22;12094;50.822;4.376;2022-10-26T10:09:42;18.50;99.90
23827;DHT22;12094;50.822;4.376;2022-10-26T10:12:19;18.50;99.90
23827;DHT22;12094;50.822;4.376;2022-10-26T10:14:56;18.50;99.90
23827;DHT22;12094;50.822;4.376;2022-10-26T10:17:25;18.60;99.90
23827;DHT22;12094;50.822;4.376;2022-10-26T10:19:52;18.60;99.90
23827;DHT22;12094;50.822;4.376;2022-10-26T10:22:24;18.60;99.90
23827;DHT22;12094;50.822;4.376;2022-10-26T10:24:59;18.70;99.90
23827;DHT22;12094;50.822;4.376;2022-10-26T10:27:27;18.80;99.90
23827;DHT22;12094;50.822;4.376;2022-10-26T10:29:56;19.00;99.90
23827;DHT22;12094;50.822;4.376;2022-10-26T10:32:31;19.10;99.90
23827;DHT22;12094;50.822;4.376;2022-10-26T10:35:23;19.30;99.90
23827;DHT22;12094;50.822;4.376;2022-10-26T10:37:51;19.40;99.90
23827;DHT22;12094;50.822;4.376;2022-10-26T10:40:22;19.60;99.90
23827;DHT22;12094;50.822;4.376;2022-10-26T10:43:04;19.60;99.90
23827;DHT22;12094;50.822;4.376;2022-10-26T10:45:54;19.50;99.90
23827;DHT22;12094;50.822;4.376;2022-10-26T10:48:32;19.50;99.90
23827;DHT22;12094;50.822;4.376;2022-10-26T10:51:06;19.60;99.90
23827;DHT22;12094;50.822;4.376;2022-10-26T10:53:47;19.60;99.90
23827;DHT22;12094;50.822;4.376;2022-10-26T10:56:34;19.60;99.90
23827;DHT22;12094;50.822;4.376;2022-10-26T11:02:12;19.80;99.90
23827;DHT22;12094;50.822;4.376;2022-10-26T11:05:09;20.20;99.90
23827;DHT22;12094;50.822;4.376;2022-10-26T11:10:35;20.20;99.90
23827;DHT22;12094;50.822;4.376;2022-10-26T11:13:23;20.40;99.90
23827;DHT22;12094;50.822;4.376;2022-10-26T11:15:57;20.40;99.90
23827;DHT22;12094;50.822;4.376;2022-10-26T11:18:36;20.20;99.90
23827;DHT22;12094;50.822;4.376;2022-10-26T11:21:30;20.20;99.90
23827;DHT22;12094;50.822;4.376;2022-10-26T11:26:56;20.50;99.90
23827;DHT22;12094;50.822;4.376;2022-10-26T11:29:32;20.40;99.90
23827;DHT22;12094;50.822;4.376;2022-10-26T11:32:15;20.40;99.90
23827;DHT22;12094;50.822;4.376;2022-10-26T11:34:48;20.60;99.90
23827;DHT22;12094;50.822;4.376;2022-10-26T11:46:22;21.40;99.90
23827;DHT22;12094;50.822;4.376;2022-10-26T11:49:17;21.40;99.90
23827;DHT22;12094;50.822;4.376;2022-10-26T11:52:07;22.00;99.90
23827;DHT22;12094;50.822;4.376;2022-10-26T11:54:45;22.50;99.90
23827;DHT22;12094;50.822;4.376;2022-10-26T11:57:15;22.70;99.90
23827;DHT22;12094;50.822;4.376;2022-10-26T12:00:02;22.70;99.90
23827;DHT22;12094;50.822;4.376;2022-10-26T12:02:39;22.80;99.90
23827;DHT22;12094;50.822;4.376;2022-10-26T12:07:47;22.80;99.90
23827;DHT22;12094;50.822;4.376;2022-10-26T12:10:28;22.60;99.90
23827;DHT22;12094;50.822;4.376;2022-10-26T12:16:05;23.20;99.90
23827;DHT22;12094;50.822;4.376;2022-10-26T12:18:49;23.90;99.90
23827;DHT22;12094;50.822;4.376;2022-10-26T12:21:29;24.70;99.90
23827;DHT22;12094;50.822;4.376;2022-10-26T12:24:23;24.70;99.90
23827;DHT22;12094;50.822;4.376;2022-10-26T12:26:57;24.60;99.90
23827;DHT22;12094;50.822;4.376;2022-10-26T12:29:36;24.20;99.90
23827;DHT22;12094;50.822;4.376;2022-10-26T12:39:34;24.00;99.90
23827;DHT22;12094;50.822;4.376;2022-10-26T12:44:36;23.30;99.90
23827;DHT22;12094;50.822;4.376;2022-10-26T12:47:58;22.60;99.90
23827;DHT22;12094;50.822;4.376;2022-10-26T12:50:22;22.00;99.90
23827;DHT22;12094;50.822;4.376;2022-10-26T12:53:12;21.60;99.90
23827;DHT22;12094;50.822;4.376;2022-10-26T12:55:46;21.50;99.90
23827;DHT22;12094;50.822;4.376;2022-10-26T13:01:48;21.30;99.90
23827;DHT22;12094;50.822;4.376;2022-10-26T13:04:46;20.90;99.90
23827;DHT22;12094;50.822;4.376;2022-10-26T13:07:46;20.80;99.90
23827;DHT22;12094;50.822;4.376;2022-10-26T13:10:21;20.80;99.90
23827;DHT22;12094;50.822;4.376;2022-10-26T13:15:26;20.60;99.90
23827;DHT22;12094;50.822;4.376;2022-10-26T13:17:58;20.60;99.90
23827;DHT22;12094;50.822;4.376;2022-10-26T13:20:29;20.60;99.90
23827;DHT22;12094;50.822;4.376;2022-10-26T13:22:58;20.60;99.90
23827;DHT22;12094;50.822;4.376;2022-10-26T13:25:32;20.60;99.90
23827;DHT22;12094;50.822;4.376;2022-10-26T13:28:29;20.60;99.90
23827;DHT22;12094;50.822;4.376;2022-10-26T13:30:56;20.60;99.90
23827;DHT22;12094;50.822;4.376;2022-10-26T13:33:37;20.60;99.90
23827;DHT22;12094;50.822;4.376;2022-10-26T13:36:24;20.60;99.90
23827;DHT22;12094;50.822;4.376;2022-10-26T13:39:11;20.70;99.90
23827;DHT22;12094;50.822;4.376;2022-10-26T13:41:43;20.70;99.90
23827;DHT22;12094;50.822;4.376;2022-10-26T13:44:18;20.70;99.90
23827;DHT22;12094;50.822;4.376;2022-10-26T13:46:58;20.80;99.90
23827;DHT22;12094;50.822;4.376;2022-10-26T13:49:40;20.70;99.90
23827;DHT22;12094;50.822;4.376;2022-10-26T13:52:18;20.70;99.90
23827;DHT22;12094;50.822;4.376;2022-10-26T13:55:02;20.60;99.90
23827;DHT22;12094;50.822;4.376;2022-10-26T13:57:42;20.70;99.90
23827;DHT22;12094;50.822;4.376;2022-10-26T14:00:19;20.70;99.90
23827;DHT22;12094;50.822;4.376;2022-10-26T14:02:48;20.80;99.90
23827;DHT22;12094;50.822;4.376;2022-10-26T14:05:18;20.80;99.90
23827;DHT22;12094;50.822;4.376;2022-10-26T14:07:56;20.80;99.90
23827;DHT22;12094;50.822;4.376;2022-10-26T14:10:39;20.70;99.90
23827;DHT22;12094;50.822;4.376;2022-10-26T14:13:09;20.60;99.90
23827;DHT22;12094;50.822;4.376;2022-10-26T14:15:44;20.60;99.90
23827;DHT22;12094;50.822;4.376;2022-10-26T14:18:21;20.60;99.90
23827;DHT22;12094;50.822;4.376;2022-10-26T14:21:04;20.80;99.90
23827;DHT22;12094;50.822;4.376;2022-10-26T14:26:37;20.90;99.90
23827;DHT22;12094;50.822;4.376;2022-10-26T14:29:22;21.00;99.90
23827;DHT22;12094;50.822;4.376;2022-10-26T14:31:49;20.90;99.90
23827;DHT22;12094;50.822;4.376;2022-10-26T14:34:18;20.90;99.90
23827;DHT22;12094;50.822;4.376;2022-10-26T14:37:01;20.90;99.90
23827;DHT22;12094;50.822;4.376;2022-10-26T14:39:42;21.00;99.90
23827;DHT22;12094;50.822;4.376;2022-10-26T14:42:31;21.20;99.90
23827;DHT22;12094;50.822;4.376;2022-10-26T14:45:00;21.10;99.90
23827;DHT22;12094;50.822;4.376;2022-10-26T14:47:31;21.20;99.90
23827;DHT22;12094;50.822;4.376;2022-10-26T14:50:00;21.10;99.90
23827;DHT22;12094;50.822;4.376;2022-10-26T14:52:31;21.00;99.90
23827;DHT22;12094;50.822;4.376;2022-10-26T14:55:12;20.90;99.90
23827;DHT22;12094;50.822;4.376;2022-10-26T14:57:42;20.80;99.90
23827;DHT22;12094;50.822;4.376;2022-10-26T15:02:54;21.10;99.90
23827;DHT22;12094;50.822;4.376;2022-10-26T15:05:32;21.20;99.90
23827;DHT22;12094;50.822;4.376;2022-10-26T15:08:45;21.20;99.90
23827;DHT22;12094;50.822;4.376;2022-10-26T15:11:29;21.00;99.90
23827;DHT22;12094;50.822;4.376;2022-10-26T15:14:00;20.80;99.90
23827;DHT22;12094;50.822;4.376;2022-10-26T15:16:31;20.80;99.90
23827;DHT22;12094;50.822;4.376;2022-10-26T15:19:29;20.70;99.90
23827;DHT22;12094;50.822;4.376;2022-10-26T15:22:21;20.80;99.90
23827;DHT22;12094;50.822;4.376;2022-10-26T15:25:00;20.70;99.90
23827;DHT22;12094;50.822;4.376;2022-10-26T15:27:29;20.70;99.90
23827;DHT22;12094;50.822;4.376;2022-10-26T15:30:21;20.60;99.90
23827;DHT22;12094;50.822;4.376;2022-10-26T15:32:51;20.60;99.90
23827;DHT22;12094;50.822;4.376;2022-10-26T15:38:46;20.40;99.90
23827;DHT22;12094;50.822;4.376;2022-10-26T15:41:37;20.40;99.90
23827;DHT22;12094;50.822;4.376;2022-10-26T15:44:32;20.40;99.90
23827;DHT22;12094;50.822;4.376;2022-10-26T15:47:01;20.30;99.90
23827;DHT22;12094;50.822;4.376;2022-10-26T15:49:35;20.10;99.90
23827;DHT22;12094;50.822;4.376;2022-10-26T15:52:27;20.10;99.90
23827;DHT22;12094;50.822;4.376;2022-10-26T15:54:57;20.10;99.90
23827;DHT22;12094;50.822;4.376;2022-10-26T15:57:26;20.10;99.90
23827;DHT22;12094;50.822;4.376;2022-10-26T15:59:54;20.00;99.90
23827;DHT22;12094;50.822;4.376;2022-10-26T16:02:24;20.00;99.90
23827;DHT22;12094;50.822;4.376;2022-10-26T16:04:54;20.00;99.90
23827;DHT22;12094;50.822;4.376;2022-10-26T16:07:25;20.00;99.90
23827;DHT22;12094;50.822;4.376;2022-10-26T16:10:23;19.90;99.90
23827;DHT22;12094;50.822;4.376;2022-10-26T16:12:54;19.90;99.90
23827;DHT22;12094;50.822;4.376;2022-10-26T16:15:23;19.90;99.90
23827;DHT22;12094;50.822;4.376;2022-10-26T16:17:57;19.90;99.90
23827;DHT22;12094;50.822;4.376;2022-10-26T16:20:34;20.00;99.90
23827;DHT22;12094;50.822;4.376;2022-10-26T16:23:02;19.90;99.90
23827;DHT22;12094;50.822;4.376;2022-10-26T16:25:38;19.90;99.90
23827;DHT22;12094;50.822;4.376;2022-10-26T16:28:08;19.90;99.90
23827;DHT22;12094;50.822;4.376;2022-10-26T16:30:43;19.90;99.90
23827;DHT22;12094;50.822;4.376;2022-10-26T16:33:11;19.90;99.90
23827;DHT22;12094;50.822;4.376;2022-10-26T16:35:38;19.80;99.90
23827;DHT22;12094;50.822;4.376;2022-10-26T16:38:06;19.80;99.90
23827;DHT22;12094;50.822;4.376;2022-10-26T16:44:28;19.60;99.90
23827;DHT22;12094;50.822;4.376;2022-10-26T16:46:57;19.60;99.90
23827;DHT22;12094;50.822;4.376;2022-10-26T16:49:43;19.60;99.90
23827;DHT22;12094;50.822;4.376;2022-10-26T16:52:16;19.50;99.90
23827;DHT22;12094;50.822;4.376;2022-10-26T16:54:44;19.50;99.90
23827;DHT22;12094;50.822;4.376;2022-10-26T16:57:25;19.50;99.90
23827;DHT22;12094;50.822;4.376;2022-10-26T16:59:59;19.40;99.90
23827;DHT22;12094;50.822;4.376;2022-10-26T17:02:51;19.40;99.90
23827;DHT22;12094;50.822;4.376;2022-10-26T17:05:37;19.40;99.90
23827;DHT22;12094;50.822;4.376;2022-10-26T17:08:13;19.40;99.90
23827;DHT22;12094;50.822;4.376;2022-10-26T17:10:46;19.40;99.90
23827;DHT22;12094;50.822;4.376;2022-10-26T17:13:17;19.40;99.90
23827;DHT22;12094;50.822;4.376;2022-10-26T17:15:45;19.40;99.90
23827;DHT22;12094;50.822;4.376;2022-10-26T17:18:13;19.30;99.90
23827;DHT22;12094;50.822;4.376;2022-10-26T17:20:48;19.20;99.90
23827;DHT22;12094;50.822;4.376;2022-10-26T17:23:19;19.20;99.90
23827;DHT22;12094;50.822;4.376;2022-10-26T17:25:47;19.30;99.90
23827;DHT22;12094;50.822;4.376;2022-10-26T17:28:17;19.20;99.90
23827;DHT22;12094;50.822;4.376;2022-10-26T17:30:46;19.20;99.90
23827;DHT22;12094;50.822;4.376;2022-10-26T17:33:19;19.20;99.90
23827;DHT22;12094;50.822;4.376;2022-10-26T17:35:52;19.20;99.90
23827;DHT22;12094;50.822;4.376;2022-10-26T17:38:20;19.20;99.90
23827;DHT22;12094;50.822;4.376;2022-10-26T17:40:47;19.20;99.90
23827;DHT22;12094;50.822;4.376;2022-10-26T17:43:14;19.20;99.90
23827;DHT22;12094;50.822;4.376;2022-10-26T17:45:41;19.20;99.90
23827;DHT22;12094;50.822;4.376;2022-10-26T17:48:12;19.20;99.90
23827;DHT22;12094;50.822;4.376;2022-10-26T17:50:43;19.30;99.90
23827;DHT22;12094;50.822;4.376;2022-10-26T17:53:14;19.30;99.90
23827;DHT22;12094;50.822;4.376;2022-10-26T17:56:00;19.30;99.90
23827;DHT22;12094;50.822;4.376;2022-10-26T17:58:28;19.30;99.90
23827;DHT22;12094;50.822;4.376;2022-10-26T18:01:00;19.30;99.90
23827;DHT22;12094;50.822;4.376;2022-10-26T18:03:34;19.30;99.90
23827;DHT22;12094;50.822;4.376;2022-10-26T18:06:18;19.30;99.90
23827;DHT22;12094;50.822;4.376;2022-10-26T18:08:51;19.30;99.90
23827;DHT22;12094;50.822;4.376;2022-10-26T18:11:21;19.20;99.90
23827;DHT22;12094;50.822;4.376;2022-10-26T18:13:57;19.20;99.90
23827;DHT22;12094;50.822;4.376;2022-10-26T18:16:27;19.10;99.90
23827;DHT22;12094;50.822;4.376;2022-10-26T18:19:28;19.10;99.90
23827;DHT22;12094;50.822;4.376;2022-10-26T18:22:13;19.00;99.90
23827;DHT22;12094;50.822;4.376;2022-10-26T18:24:44;18.90;99.90
23827;DHT22;12094;50.822;4.376;2022-10-26T18:27:11;18.90;99.90
23827;DHT22;12094;50.822;4.376;2022-10-26T18:29:39;18.90;99.90
23827;DHT22;12094;50.822;4.376;2022-10-26T18:32:08;18.80;99.90
23827;DHT22;12094;50.822;4.376;2022-10-26T18:34:36;18.80;99.90
23827;DHT22;12094;50.822;4.376;2022-10-26T18:37:03;18.70;99.90
23827;DHT22;12094;50.822;4.376;2022-10-26T18:40:02;18.70;99.90
23827;DHT22;12094;50.822;4.376;2022-10-26T18:42:32;18.70;99.90
23827;DHT22;12094;50.822;4.376;2022-10-26T18:45:00;18.70;99.90
23827;DHT22;12094;50.822;4.376;2022-10-26T18:47:35;18.70;99.90
23827;DHT22;12094;50.822;4.376;2022-10-26T18:50:05;18.70;99.90
23827;DHT22;12094;50.822;4.376;2022-10-26T18:52:32;18.70;99.90
23827;DHT22;12094;50.822;4.376;2022-10-26T18:54:59;18.60;99.90
23827;DHT22;12094;50.822;4.376;2022-10-26T18:57:31;18.50;99.90
23827;DHT22;12094;50.822;4.376;2022-10-26T18:59:59;18.50;99.90
23827;DHT22;12094;50.822;4.376;2022-10-26T19:02:32;18.50;99.90